CPE8 weather

Oakville (Trafalgar Memorial Hospital) Heliport
Oakville, Ontario, Canada

Public forecast

Using degrees Celsius for public forecast. Weather courtesy of forecast.io.

METAR (pilot weather report)

Closest report is Lester B. Pearson International Airport, 12.3 nm (22.8 km) N. Retrieved 2019/05/23 08:00 UTC (11 minutes ago):

CYYZ 230800Z 09006KT 15SM SCT180 09/04 A2997 RMK AC3 SLP153

TAF (pilot weather forecast)

Closest forecast is Lester B. Pearson International Airport, 12.3 nm (22.8 km) N. Retrieved 2019/05/23 09:42 UTC (0 seconds ago):

TAF CYYZ 230838Z 2309/2412 09008KT P6SM SCT180 FM231000 VRB03KT P6SM SCT006 BKN140 TEMPO 2310/2312 2SM BR BKN006 FM231200 14006KT P6SM SCT012 BKN100 TEMPO 2312/2314 BKN012 FM231700 24012G22KT P6SM -SHRA SCT020 OVC080 TEMPO 2317/2319 5SM -SHRA VCTS BR BKN020 OVC060CB FM232000 27025G35KT P6SM SCT030 BECMG 2400/2402 30012G22KT BECMG 2408/2410 30012KT RMK NXT FCST BY 231200Z